CCW5 weather

Thorburn Lake Seaplane Base
Thorburn Lake, Newfoundland and Labrador, Canada

Public forecast

Using degrees Celsius for public forecast. Weather courtesy of forecast.io.

METAR (pilot weather report)

Closest report is Gander International Airport, 43.5 nm (80.6 km) NNW. Retrieved 2019/07/16 07:12 UTC (47 minutes ago):

CYQX 160712Z 16003KT 3/8SM R13/2800V5000FT/U R03/P6000FT/N -DZ FG OVC003 14/14 A2973 RMK FG6SF2 SLP071 DENSITY ALT 700FT

TAF (pilot weather forecast)

Closest forecast is Gander International Airport, 43.5 nm (80.6 km) NNW. Retrieved 2019/07/16 06:42 UTC (1 hour ago):

TAF TAF CYQX 160538Z 1606/1706 16008KT 1/8SM -DZ FG VV001 TEMPO 1606/1609 2SM -DZ BR OVC004 FM160900 21008KT 4SM -DZ BR BKN004 OVC012 TEMPO 1609/1612 6SM -RA BR FEW004 OVC012 FM161200 32005KT P6SM -SHRA BKN012 OVC020 PROB30 1612/1617 2SM TSRA BR OVC025CB FM161700 34010KT P6SM BKN030 PROB30 1617/1620 2SM TSRA BR OVC030CB FM162300 01008KT 6SM -RA BR BKN020 FM170300 34008KT 2SM -DZ BR OVC003 RMK NXT FCST BY 161200Z